createdAt,value
2023-02-11T00:02:20.852Z,97.10
2023-02-11T00:04:49.692Z,97.10
2023-02-11T00:07:18.544Z,97.20
2023-02-11T00:09:47.538Z,97.20
2023-02-11T00:12:16.290Z,97.20
2023-02-11T00:14:45.050Z,97.20
2023-02-11T00:17:15.535Z,97.20
2023-02-11T00:19:44.438Z,97.20
2023-02-11T00:22:13.277Z,97.20
2023-02-11T00:24:42.151Z,97.30
2023-02-11T00:27:11.078Z,97.30
2023-02-11T00:29:40.364Z,97.30
2023-02-11T00:32:12.619Z,97.40
2023-02-11T00:34:42.964Z,97.40
2023-02-11T00:37:12.392Z,97.50
2023-02-11T00:39:43.850Z,97.50
2023-02-11T00:42:16.293Z,97.60
2023-02-11T00:44:47.249Z,97.60
2023-02-11T00:47:19.143Z,97.60
2023-02-11T00:49:49.653Z,97.60
2023-02-11T00:52:18.646Z,97.70
2023-02-11T00:54:47.593Z,97.60
2023-02-11T00:57:16.916Z,97.70
2023-02-11T00:59:45.810Z,97.80
2023-02-11T01:02:14.645Z,97.80
2023-02-11T01:04:45.224Z,97.80
2023-02-11T01:07:15.563Z,97.80
2023-02-11T01:09:44.667Z,97.90
2023-02-11T01:12:13.518Z,97.90
2023-02-11T01:14:43.154Z,97.90
2023-02-11T01:17:12.319Z,98.00
2023-02-11T01:19:43.578Z,98.10
2023-02-11T01:22:12.848Z,98.10
2023-02-11T01:24:43.117Z,98.00
2023-02-11T01:27:11.984Z,98.00
2023-02-11T01:29:40.915Z,97.90
2023-02-11T01:32:09.821Z,98.00
2023-02-11T01:34:38.698Z,97.90
2023-02-11T01:37:07.569Z,97.90
2023-02-11T01:39:36.889Z,97.90
2023-02-11T01:42:08.697Z,97.80
2023-02-11T01:44:40.273Z,97.80
2023-02-11T01:47:09.368Z,97.80
2023-02-11T01:49:42.112Z,97.80
2023-02-11T01:52:14.426Z,97.90
2023-02-11T01:55:03.115Z,97.90
2023-02-11T01:57:36.476Z,97.90
2023-02-11T02:00:14.237Z,98.00
2023-02-11T02:02:51.940Z,98.00
2023-02-11T02:05:26.467Z,98.00
2023-02-11T02:08:02.648Z,98.00
2023-02-11T02:10:32.864Z,98.10
2023-02-11T02:13:03.333Z,98.10
2023-02-11T02:15:35.486Z,98.00
2023-02-11T02:18:24.475Z,98.10
2023-02-11T02:21:46.994Z,98.10
2023-02-11T02:24:56.841Z,98.10
2023-02-11T02:27:41.505Z,98.20
2023-02-11T02:31:06.300Z,98.30
2023-02-11T02:33:55.180Z,98.50
2023-02-11T02:36:29.930Z,98.50
2023-02-11T02:39:04.436Z,98.60
2023-02-11T02:41:36.131Z,98.80
2023-02-11T02:44:05.406Z,98.90
2023-02-11T02:46:35.822Z,99.00
2023-02-11T02:49:12.527Z,99.20
2023-02-11T02:52:04.628Z,99.30
2023-02-11T02:55:08.893Z,99.40
2023-02-11T02:57:49.060Z,99.50
2023-02-11T03:00:31.154Z,99.60
2023-02-11T03:03:17.300Z,99.60
2023-02-11T03:05:54.637Z,99.70
2023-02-11T03:08:47.782Z,99.80
2023-02-11T03:11:20.861Z,99.90
2023-02-11T03:13:52.470Z,99.90
2023-02-11T03:16:26.404Z,99.90
2023-02-11T03:19:01.565Z,99.90
2023-02-11T03:21:34.984Z,99.90
2023-02-11T03:24:07.796Z,99.90
2023-02-11T03:26:41.924Z,99.90
2023-02-11T03:29:18.827Z,99.90
2023-02-11T03:31:56.070Z,99.90
2023-02-11T03:34:31.027Z,99.90
2023-02-11T03:37:07.488Z,99.90
2023-02-11T03:39:41.082Z,99.90
2023-02-11T03:42:12.354Z,99.90
2023-02-11T03:44:46.572Z,99.90
2023-02-11T03:47:18.633Z,99.90
2023-02-11T03:49:51.201Z,99.90
2023-02-11T03:52:23.452Z,99.90
2023-02-11T03:54:57.284Z,99.90
2023-02-11T03:57:26.284Z,99.90
2023-02-11T03:59:57.944Z,99.90
2023-02-11T04:02:30.771Z,99.90
2023-02-11T04:05:00.055Z,99.90
2023-02-11T04:07:30.656Z,99.90
2023-02-11T04:09:59.611Z,99.90
2023-02-11T04:12:28.532Z,99.90
2023-02-11T04:14:57.335Z,99.90
2023-02-11T04:17:26.402Z,99.90
2023-02-11T04:19:55.370Z,99.90
2023-02-11T04:22:24.166Z,99.90
2023-02-11T04:24:54.519Z,99.90
2023-02-11T04:27:23.407Z,99.90
2023-02-11T04:29:52.290Z,99.90
2023-02-11T04:32:21.230Z,99.90
2023-02-11T04:34:50.097Z,99.90
2023-02-11T04:37:19.233Z,99.90
2023-02-11T04:39:48.042Z,99.90
2023-02-11T04:42:18.394Z,99.90
2023-02-11T04:44:47.379Z,99.90
2023-02-11T04:47:16.596Z,99.90
2023-02-11T04:49:45.472Z,99.90
2023-02-11T04:52:14.479Z,99.90
2023-02-11T04:54:43.264Z,99.90
2023-02-11T04:57:12.156Z,99.90
2023-02-11T05:00:00.853Z,99.90
2023-02-11T05:02:29.782Z,99.90
2023-02-11T05:04:58.689Z,99.90
2023-02-11T05:07:27.578Z,99.90
2023-02-11T05:09:56.411Z,99.90
2023-02-11T05:12:25.351Z,99.90
2023-02-11T05:14:54.212Z,99.90
2023-02-11T05:17:24.543Z,99.90
2023-02-11T05:19:53.436Z,99.90
2023-02-11T05:22:22.652Z,99.90
2023-02-11T05:24:51.936Z,99.90
2023-02-11T05:27:20.969Z,99.90
2023-02-11T05:29:49.739Z,99.90
2023-02-11T05:32:18.544Z,99.90
2023-02-11T05:34:48.969Z,99.90
2023-02-11T05:37:18.762Z,99.90
2023-02-11T05:39:47.707Z,99.90
2023-02-11T05:42:16.578Z,99.90
2023-02-11T05:44:45.456Z,99.90
2023-02-11T05:47:14.275Z,99.90
2023-02-11T05:49:43.146Z,99.90
2023-02-11T05:52:13.381Z,99.90
2023-02-11T05:54:42.394Z,99.90
2023-02-11T05:57:11.232Z,99.90
2023-02-11T05:59:40.671Z,99.90
2023-02-11T06:02:09.993Z,99.90
2023-02-11T06:04:39.690Z,99.90
2023-02-11T06:07:08.607Z,99.90
2023-02-11T06:09:39.104Z,99.90
2023-02-11T06:12:08.451Z,99.90
2023-02-11T06:14:37.247Z,99.90
2023-02-11T06:17:06.285Z,99.90
2023-02-11T06:19:35.468Z,99.90
2023-02-11T06:22:04.267Z,99.90
2023-02-11T06:24:58.447Z,99.90
2023-02-11T06:27:23.923Z,99.90
2023-02-11T06:29:53.043Z,99.90
2023-02-11T06:32:42.091Z,99.90
2023-02-11T06:35:12.229Z,99.90
2023-02-11T06:37:42.182Z,99.90
2023-02-11T06:40:12.065Z,99.90
2023-02-11T06:42:42.658Z,99.90
2023-02-11T06:45:13.561Z,99.70
2023-02-11T06:47:42.858Z,99.20
2023-02-11T06:50:15.094Z,99.10
2023-02-11T06:52:44.027Z,98.90
2023-02-11T06:55:13.028Z,98.30
2023-02-11T06:57:43.353Z,98.10
2023-02-11T07:00:13.676Z,97.80
2023-02-11T07:02:42.727Z,97.60
2023-02-11T07:05:12.332Z,97.20
2023-02-11T07:07:41.230Z,96.90
2023-02-11T07:10:10.662Z,96.90
2023-02-11T07:12:39.742Z,96.70
2023-02-11T07:15:10.611Z,96.60
2023-02-11T07:17:39.583Z,96.10
2023-02-11T07:20:09.328Z,95.90
2023-02-11T07:22:38.213Z,95.60
2023-02-11T07:25:07.669Z,95.30
2023-02-11T07:27:36.491Z,94.90
2023-02-11T07:30:07.322Z,94.90
2023-02-11T07:32:37.972Z,94.50
2023-02-11T07:35:07.588Z,94.10
2023-02-11T07:37:36.782Z,93.70
2023-02-11T07:40:05.966Z,93.50
2023-02-11T07:42:37.530Z,93.50
2023-02-11T07:45:07.063Z,93.40
2023-02-11T07:47:38.445Z,93.10
2023-02-11T07:50:13.073Z,93.20
2023-02-11T07:52:42.918Z,93.10
2023-02-11T07:55:11.777Z,92.60
2023-02-11T07:57:41.452Z,92.30
2023-02-11T08:00:11.597Z,92.10
2023-02-11T08:02:41.997Z,91.80
2023-02-11T08:05:11.318Z,91.80
2023-02-11T08:07:40.171Z,91.60
2023-02-11T08:10:09.673Z,91.40
2023-02-11T08:12:38.559Z,90.90
2023-02-11T08:15:07.810Z,90.80
2023-02-11T08:17:37.388Z,90.50
2023-02-11T08:20:08.661Z,90.50
2023-02-11T08:22:37.701Z,90.10
2023-02-11T08:25:07.502Z,89.90
2023-02-11T08:27:41.865Z,89.60
2023-02-11T08:30:11.985Z,89.20
2023-02-11T08:32:41.111Z,88.20
2023-02-11T08:35:12.949Z,87.80
2023-02-11T08:37:42.072Z,87.50
2023-02-11T08:40:11.906Z,87.00
2023-02-11T08:42:40.811Z,86.70
2023-02-11T08:45:11.138Z,85.40
2023-02-11T08:47:45.081Z,85.20
2023-02-11T08:50:15.608Z,84.60
2023-02-11T08:52:44.827Z,83.60
2023-02-11T08:55:13.695Z,83.50
2023-02-11T08:57:42.593Z,83.50
2023-02-11T09:00:12.757Z,83.20
2023-02-11T09:02:41.675Z,83.10
2023-02-11T09:05:10.736Z,83.00
2023-02-11T09:07:41.001Z,82.80
2023-02-11T09:10:10.838Z,82.40
2023-02-11T09:12:39.639Z,80.80
2023-02-11T09:15:11.571Z,79.60
2023-02-11T09:17:41.148Z,78.20
2023-02-11T09:20:11.026Z,79.10
2023-02-11T09:22:41.364Z,79.50
2023-02-11T09:25:10.566Z,79.00
2023-02-11T09:27:39.554Z,79.00
2023-02-11T09:30:09.256Z,78.40
2023-02-11T09:32:38.133Z,77.60
2023-02-11T09:35:07.684Z,78.40
2023-02-11T09:37:37.513Z,78.50
2023-02-11T09:40:08.974Z,78.30
2023-02-11T09:43:03.001Z,75.70
2023-02-11T09:45:35.770Z,75.00
2023-02-11T09:48:15.951Z,73.80
2023-02-11T09:50:56.682Z,74.30
2023-02-11T09:53:29.303Z,73.30
2023-02-11T09:56:12.466Z,71.40
2023-02-11T09:58:46.377Z,70.70
2023-02-11T10:01:31.889Z,67.50
2023-02-11T10:04:27.524Z,67.10
2023-02-11T10:07:12.168Z,65.90
2023-02-11T10:09:59.036Z,66.00
2023-02-11T10:12:53.499Z,67.60
2023-02-11T10:15:36.520Z,69.00
2023-02-11T10:18:24.448Z,69.20
2023-02-11T10:21:10.005Z,69.40
2023-02-11T10:23:42.781Z,69.40
2023-02-11T10:26:15.274Z,67.70
2023-02-11T10:28:48.765Z,66.10
2023-02-11T10:31:22.908Z,65.40
2023-02-11T10:33:58.049Z,65.60
2023-02-11T10:36:30.818Z,65.80
2023-02-11T10:39:01.664Z,65.70
2023-02-11T10:41:35.210Z,63.60
2023-02-11T10:44:09.220Z,63.20
2023-02-11T10:46:40.462Z,63.60
2023-02-11T10:49:40.033Z,63.00
2023-02-11T10:52:19.213Z,61.40
2023-02-11T10:55:03.432Z,61.50
2023-02-11T10:57:36.449Z,62.10
2023-02-11T11:00:24.455Z,63.40
2023-02-11T11:02:58.340Z,61.70
2023-02-11T11:05:33.060Z,59.30
2023-02-11T11:08:03.818Z,57.90
2023-02-11T11:10:43.736Z,58.80
2023-02-11T11:13:33.612Z,57.70
2023-02-11T11:16:19.299Z,54.20
2023-02-11T11:18:49.831Z,52.70
2023-02-11T11:21:22.827Z,51.60
2023-02-11T11:23:58.523Z,51.90
2023-02-11T11:26:29.723Z,52.00
2023-02-11T11:29:02.996Z,53.80
2023-02-11T11:31:36.896Z,55.20
2023-02-11T11:34:22.117Z,54.00
2023-02-11T11:36:52.057Z,54.20
2023-02-11T11:39:24.867Z,54.20
2023-02-11T11:41:56.749Z,54.00
2023-02-11T11:44:31.275Z,53.50
2023-02-11T11:47:25.767Z,54.30
2023-02-11T11:50:16.379Z,55.30
2023-02-11T11:52:50.625Z,56.00
2023-02-11T11:55:23.019Z,57.60
2023-02-11T11:57:52.518Z,57.70
2023-02-11T12:00:25.462Z,58.00
2023-02-11T12:03:24.392Z,58.80
2023-02-11T12:06:04.378Z,58.90
2023-02-11T12:08:43.640Z,57.60
2023-02-11T12:11:21.054Z,57.70
2023-02-11T12:14:02.933Z,57.90
2023-02-11T12:16:42.894Z,57.40
2023-02-11T12:19:39.496Z,58.00
2023-02-11T12:22:12.981Z,58.30
2023-02-11T12:24:57.575Z,58.40
2023-02-11T12:27:42.996Z,58.40
2023-02-11T12:30:39.279Z,58.70
2023-02-11T12:33:17.541Z,58.60
2023-02-11T12:35:57.743Z,59.00
2023-02-11T12:38:48.531Z,58.70
2023-02-11T12:42:07.996Z,58.70
2023-02-11T12:44:49.836Z,58.00
2023-02-11T12:47:30.132Z,58.10
2023-02-11T12:50:09.816Z,57.70
2023-02-11T12:52:56.431Z,57.70
2023-02-11T12:55:28.122Z,58.00
2023-02-11T12:58:00.435Z,58.50
2023-02-11T13:00:40.112Z,58.30
2023-02-11T13:03:15.223Z,58.40
2023-02-11T13:05:50.587Z,58.10
2023-02-11T13:08:27.334Z,58.40
2023-02-11T13:10:59.435Z,58.90
2023-02-11T13:13:31.084Z,58.40
2023-02-11T13:16:06.694Z,58.60
2023-02-11T13:18:49.661Z,58.80
2023-02-11T13:21:38.608Z,59.50
2023-02-11T13:24:20.757Z,59.20
2023-02-11T13:27:05.953Z,59.50
2023-02-11T13:29:52.176Z,59.50
2023-02-11T13:32:21.280Z,59.20
2023-02-11T13:35:00.903Z,59.70
2023-02-11T13:37:38.385Z,59.70
2023-02-11T13:40:24.444Z,60.80
2023-02-11T13:42:56.782Z,60.00
2023-02-11T13:45:32.072Z,60.50
2023-02-11T13:48:03.581Z,60.90
2023-02-11T13:50:39.210Z,61.20
2023-02-11T13:53:09.704Z,61.70
2023-02-11T13:55:42.062Z,61.80
2023-02-11T13:58:37.815Z,62.10
2023-02-11T14:01:07.976Z,62.30
2023-02-11T14:03:56.586Z,62.50
2023-02-11T14:06:45.846Z,63.00
2023-02-11T14:09:44.371Z,63.50
2023-02-11T14:12:43.562Z,64.00
2023-02-11T14:15:31.381Z,64.40
2023-02-11T14:18:00.304Z,65.00
2023-02-11T14:20:43.546Z,65.40
2023-02-11T14:23:25.012Z,65.60
2023-02-11T14:26:06.501Z,66.00
2023-02-11T14:28:37.701Z,66.40
2023-02-11T14:31:13.550Z,66.70
2023-02-11T14:34:05.552Z,67.00
2023-02-11T14:37:05.507Z,67.50
2023-02-11T14:39:53.262Z,68.00
2023-02-11T14:42:27.052Z,68.60
2023-02-11T14:45:04.653Z,68.90
2023-02-11T14:47:46.694Z,69.20
2023-02-11T14:50:20.668Z,69.20
2023-02-11T14:52:51.290Z,69.30
2023-02-11T14:55:31.632Z,69.40
2023-02-11T14:58:15.199Z,69.50
2023-02-11T15:00:55.808Z,69.80
2023-02-11T15:03:37.443Z,69.70
2023-02-11T15:06:09.353Z,69.80
2023-02-11T15:08:43.842Z,70.00
2023-02-11T15:11:34.979Z,71.00
2023-02-11T15:14:10.576Z,70.60
2023-02-11T15:16:45.731Z,71.00
2023-02-11T15:19:23.230Z,71.40
2023-02-11T15:21:53.337Z,71.70
2023-02-11T15:24:40.725Z,72.10
2023-02-11T15:27:14.830Z,72.40
2023-02-11T15:29:45.681Z,72.90
2023-02-11T15:32:18.756Z,73.30
2023-02-11T15:34:49.352Z,73.70
2023-02-11T15:37:22.543Z,74.10
2023-02-11T15:39:54.134Z,74.40
2023-02-11T15:42:26.385Z,74.70
2023-02-11T15:45:13.130Z,75.00
2023-02-11T15:47:50.214Z,75.50
2023-02-11T15:50:25.907Z,75.70
2023-02-11T15:53:24.915Z,76.10
2023-02-11T15:55:59.572Z,76.40
2023-02-11T15:58:28.999Z,76.50
2023-02-11T16:01:00.133Z,76.80
2023-02-11T16:03:33.127Z,77.10
2023-02-11T16:06:30.566Z,77.30
2023-02-11T16:09:02.162Z,77.50
2023-02-11T16:11:33.643Z,77.80
2023-02-11T16:14:05.884Z,78.20
2023-02-11T16:16:36.743Z,78.80
2023-02-11T16:19:07.057Z,79.30
2023-02-11T16:21:39.516Z,79.70
2023-02-11T16:24:17.508Z,80.00
2023-02-11T16:26:55.423Z,80.10
2023-02-11T16:29:27.740Z,80.20
2023-02-11T16:32:09.570Z,80.30
2023-02-11T16:34:46.450Z,80.70
2023-02-11T16:37:15.922Z,81.10
2023-02-11T16:39:45.121Z,81.10
2023-02-11T16:42:14.443Z,81.60
2023-02-11T16:44:43.348Z,81.80
2023-02-11T16:47:29.421Z,81.90
2023-02-11T16:50:02.179Z,82.20
2023-02-11T16:52:32.321Z,82.40
2023-02-11T16:55:01.551Z,82.50
2023-02-11T16:57:31.522Z,82.40
2023-02-11T17:00:01.263Z,82.40
2023-02-11T17:02:33.153Z,82.60
2023-02-11T17:05:05.829Z,82.60
2023-02-11T17:07:35.564Z,83.30
2023-02-11T17:10:04.491Z,82.80
2023-02-11T17:12:33.539Z,82.80
2023-02-11T17:15:02.489Z,82.80
2023-02-11T17:17:31.366Z,83.10
2023-02-11T17:20:03.132Z,83.40
2023-02-11T17:22:32.123Z,83.50
2023-02-11T17:25:01.125Z,84.20
2023-02-11T17:27:30.245Z,83.60
2023-02-11T17:30:18.520Z,83.80
2023-02-11T17:32:47.703Z,83.90
2023-02-11T17:35:18.667Z,84.10
2023-02-11T17:37:47.958Z,84.20
2023-02-11T17:40:17.259Z,84.30
2023-02-11T17:42:46.369Z,84.50
2023-02-11T17:45:16.960Z,84.80
2023-02-11T17:47:46.362Z,84.80
2023-02-11T17:50:15.202Z,84.90
2023-02-11T17:52:45.519Z,84.80
2023-02-11T17:55:14.587Z,84.80
2023-02-11T17:57:43.418Z,84.80
2023-02-11T18:00:13.329Z,85.10
2023-02-11T18:02:42.366Z,85.30
2023-02-11T18:05:17.092Z,85.30
2023-02-11T18:07:49.218Z,85.40
2023-02-11T18:10:18.181Z,85.50
2023-02-11T18:12:47.071Z,85.60
2023-02-11T18:15:18.785Z,85.60
2023-02-11T18:17:47.669Z,85.90
2023-02-11T18:20:16.665Z,86.10
2023-02-11T18:22:45.555Z,86.30
2023-02-11T18:25:17.011Z,86.30
2023-02-11T18:27:46.576Z,86.50
2023-02-11T18:30:20.880Z,86.70
2023-02-11T18:32:49.852Z,86.90
2023-02-11T18:35:20.608Z,86.90
2023-02-11T18:37:49.843Z,86.90
2023-02-11T18:40:20.679Z,86.70
2023-02-11T18:42:49.614Z,86.70
2023-02-11T18:45:18.655Z,86.50
2023-02-11T18:47:47.599Z,86.80
2023-02-11T18:50:16.703Z,87.00
2023-02-11T18:52:52.228Z,86.90
2023-02-11T18:55:29.102Z,86.90
2023-02-11T18:58:05.809Z,86.70
2023-02-11T19:00:36.797Z,86.80
2023-02-11T19:03:05.988Z,86.90
2023-02-11T19:05:42.369Z,87.00
2023-02-11T19:08:11.643Z,87.70
2023-02-11T19:10:43.720Z,87.20
2023-02-11T19:13:13.008Z,87.30
2023-02-11T19:15:43.012Z,87.30
2023-02-11T19:18:12.181Z,87.30
2023-02-11T19:20:41.495Z,87.50
2023-02-11T19:23:11.104Z,87.50
2023-02-11T19:25:47.054Z,87.50
2023-02-11T19:28:17.771Z,87.60
2023-02-11T19:30:46.847Z,87.80
2023-02-11T19:33:15.815Z,88.00
2023-02-11T19:35:44.694Z,88.10
2023-02-11T19:38:15.984Z,88.00
2023-02-11T19:40:45.023Z,88.20
2023-02-11T19:43:13.828Z,88.30
2023-02-11T19:45:44.173Z,88.30
2023-02-11T19:48:14.773Z,88.50
2023-02-11T19:50:44.301Z,88.60
2023-02-11T19:53:14.930Z,88.60
2023-02-11T19:55:44.318Z,88.60
2023-02-11T19:58:13.145Z,88.60
2023-02-11T20:00:44.416Z,88.70
2023-02-11T20:03:13.445Z,88.90
2023-02-11T20:05:47.408Z,88.90
2023-02-11T20:08:17.884Z,89.00
2023-02-11T20:10:54.779Z,89.10
2023-02-11T20:13:23.831Z,89.20
2023-02-11T20:15:54.750Z,89.20
2023-02-11T20:18:24.066Z,89.30
2023-02-11T20:20:53.330Z,89.40
2023-02-11T20:23:22.150Z,89.50
2023-02-11T20:25:51.190Z,89.70
2023-02-11T20:28:20.572Z,89.70
2023-02-11T20:30:58.602Z,89.60
2023-02-11T20:33:31.617Z,89.70
2023-02-11T20:36:06.070Z,89.70
2023-02-11T20:38:35.303Z,89.70
2023-02-11T20:41:05.791Z,89.70
2023-02-11T20:43:37.648Z,90.20
2023-02-11T20:46:09.704Z,90.00
2023-02-11T20:48:39.260Z,90.00
2023-02-11T20:51:10.453Z,90.10
2023-02-11T20:53:41.086Z,90.20
2023-02-11T20:56:12.449Z,90.30
2023-02-11T20:58:42.257Z,90.40
2023-02-11T21:01:16.886Z,90.60
2023-02-11T21:03:46.778Z,90.70
2023-02-11T21:06:15.672Z,90.80
2023-02-11T21:08:45.036Z,90.90
2023-02-11T21:11:14.347Z,91.00
2023-02-11T21:13:44.220Z,91.10
2023-02-11T21:16:17.623Z,91.20
2023-02-11T21:18:47.565Z,91.30
2023-02-11T21:21:16.658Z,91.30
2023-02-11T21:23:45.903Z,91.40
2023-02-11T21:26:15.378Z,91.40
2023-02-11T21:28:44.503Z,91.40
2023-02-11T21:31:21.530Z,91.40
2023-02-11T21:33:51.227Z,91.60
2023-02-11T21:36:20.579Z,91.60
2023-02-11T21:38:50.118Z,91.60
2023-02-11T21:41:31.843Z,91.70
2023-02-11T21:44:06.605Z,91.80
2023-02-11T21:46:37.776Z,91.80
2023-02-11T21:49:06.662Z,92.00
2023-02-11T21:51:35.971Z,92.10
2023-02-11T21:54:04.940Z,92.20
2023-02-11T21:56:35.704Z,92.30
2023-02-11T21:59:04.951Z,92.50
2023-02-11T22:01:37.102Z,92.60
2023-02-11T22:04:07.611Z,92.70
2023-02-11T22:06:36.715Z,92.90
2023-02-11T22:09:07.673Z,93.00
2023-02-11T22:11:37.140Z,93.20
2023-02-11T22:14:06.151Z,93.30
2023-02-11T22:16:35.118Z,93.40
2023-02-11T22:19:04.211Z,93.40
2023-02-11T22:21:34.501Z,93.50
2023-02-11T22:24:03.399Z,93.60
2023-02-11T22:26:32.482Z,93.70
2023-02-11T22:29:01.505Z,93.80
2023-02-11T22:31:33.741Z,93.90
2023-02-11T22:34:03.572Z,94.00
2023-02-11T22:36:35.600Z,94.10
2023-02-11T22:39:06.900Z,94.20
2023-02-11T22:41:38.449Z,94.30
2023-02-11T22:44:07.711Z,94.30
2023-02-11T22:46:36.840Z,94.40
2023-02-11T22:49:07.387Z,94.50
2023-02-11T22:51:37.863Z,94.60
2023-02-11T22:54:09.167Z,94.70
2023-02-11T22:56:38.400Z,94.80
2023-02-11T22:59:09.049Z,94.90
2023-02-11T23:01:38.254Z,94.90
2023-02-11T23:04:09.207Z,95.00
2023-02-11T23:06:39.734Z,95.10
2023-02-11T23:09:09.952Z,95.20
2023-02-11T23:11:38.903Z,95.30
2023-02-11T23:14:08.727Z,95.40
2023-02-11T23:16:37.896Z,95.50
2023-02-11T23:19:19.152Z,95.60
2023-02-11T23:21:52.793Z,95.70
2023-02-11T23:24:22.336Z,95.80
2023-02-11T23:26:52.224Z,95.90
2023-02-11T23:29:21.204Z,95.90
2023-02-11T23:31:50.192Z,96.00
2023-02-11T23:34:24.134Z,96.10
2023-02-11T23:36:54.810Z,96.20
2023-02-11T23:39:23.898Z,96.40
2023-02-11T23:41:59.005Z,96.50
2023-02-11T23:44:28.573Z,96.60
2023-02-11T23:46:57.596Z,96.60
2023-02-11T23:49:26.541Z,96.70
2023-02-11T23:52:00.485Z,96.80
2023-02-11T23:54:39.356Z,96.80
2023-02-11T23:57:08.706Z,96.90
2023-02-11T23:59:42.965Z,96.90
